sensor_id;sensor_type;location;lat;lon;timestamp;P1;durP1;ratioP1;P2;durP2;ratioP2
25752;SDS011;13600;50.816;4.416;2024-03-08T00:00:06;37.58;;;18.80;;
25752;SDS011;13600;50.816;4.416;2024-03-08T00:02:37;40.45;;;19.23;;
25752;SDS011;13600;50.816;4.416;2024-03-08T00:05:07;38.22;;;18.40;;
25752;SDS011;13600;50.816;4.416;2024-03-08T00:07:36;40.20;;;19.73;;
25752;SDS011;13600;50.816;4.416;2024-03-08T00:10:03;41.22;;;19.50;;
25752;SDS011;13600;50.816;4.416;2024-03-08T00:12:29;35.85;;;19.02;;
25752;SDS011;13600;50.816;4.416;2024-03-08T00:14:55;42.75;;;19.30;;
25752;SDS011;13600;50.816;4.416;2024-03-08T00:17:21;39.53;;;19.42;;
25752;SDS011;13600;50.816;4.416;2024-03-08T00:19:52;38.67;;;19.75;;
25752;SDS011;13600;50.816;4.416;2024-03-08T00:22:18;40.00;;;20.83;;
25752;SDS011;13600;50.816;4.416;2024-03-08T00:24:43;39.40;;;20.02;;
25752;SDS011;13600;50.816;4.416;2024-03-08T00:27:10;40.47;;;19.52;;
25752;SDS011;13600;50.816;4.416;2024-03-08T00:29:36;41.08;;;19.27;;
25752;SDS011;13600;50.816;4.416;2024-03-08T00:32:04;38.55;;;18.58;;
25752;SDS011;13600;50.816;4.416;2024-03-08T00:34:30;40.13;;;18.98;;
25752;SDS011;13600;50.816;4.416;2024-03-08T00:36:56;41.90;;;19.77;;
25752;SDS011;13600;50.816;4.416;2024-03-08T00:39:23;43.50;;;19.58;;
25752;SDS011;13600;50.816;4.416;2024-03-08T00:41:50;35.78;;;19.00;;
25752;SDS011;13600;50.816;4.416;2024-03-08T00:44:16;39.88;;;19.70;;
25752;SDS011;13600;50.816;4.416;2024-03-08T00:46:41;39.88;;;20.30;;
25752;SDS011;13600;50.816;4.416;2024-03-08T00:49:08;37.88;;;19.92;;
25752;SDS011;13600;50.816;4.416;2024-03-08T00:51:34;39.40;;;20.05;;
25752;SDS011;13600;50.816;4.416;2024-03-08T00:54:07;37.72;;;19.50;;
25752;SDS011;13600;50.816;4.416;2024-03-08T00:56:32;39.28;;;20.45;;
25752;SDS011;13600;50.816;4.416;2024-03-08T00:58:59;41.08;;;20.30;;
25752;SDS011;13600;50.816;4.416;2024-03-08T01:01:25;40.65;;;19.70;;
25752;SDS011;13600;50.816;4.416;2024-03-08T01:03:51;41.58;;;19.83;;
25752;SDS011;13600;50.816;4.416;2024-03-08T01:06:17;39.03;;;20.30;;
25752;SDS011;13600;50.816;4.416;2024-03-08T01:08:43;44.05;;;20.25;;
25752;SDS011;13600;50.816;4.416;2024-03-08T01:11:10;38.42;;;19.50;;
25752;SDS011;13600;50.816;4.416;2024-03-08T01:13:39;41.53;;;20.60;;
25752;SDS011;13600;50.816;4.416;2024-03-08T01:16:04;43.10;;;20.77;;
25752;SDS011;13600;50.816;4.416;2024-03-08T01:18:30;43.70;;;21.20;;
25752;SDS011;13600;50.816;4.416;2024-03-08T01:20:57;43.85;;;20.77;;
25752;SDS011;13600;50.816;4.416;2024-03-08T01:23:24;39.25;;;20.63;;
25752;SDS011;13600;50.816;4.416;2024-03-08T01:25:50;39.88;;;21.20;;
25752;SDS011;13600;50.816;4.416;2024-03-08T01:28:23;42.38;;;21.17;;
25752;SDS011;13600;50.816;4.416;2024-03-08T01:30:52;39.30;;;21.55;;
25752;SDS011;13600;50.816;4.416;2024-03-08T01:33:24;43.50;;;22.08;;
25752;SDS011;13600;50.816;4.416;2024-03-08T01:35:53;40.05;;;21.27;;
25752;SDS011;13600;50.816;4.416;2024-03-08T01:38:20;39.92;;;20.77;;
25752;SDS011;13600;50.816;4.416;2024-03-08T01:40:49;43.65;;;20.70;;
25752;SDS011;13600;50.816;4.416;2024-03-08T01:45:49;35.67;;;20.77;;
25752;SDS011;13600;50.816;4.416;2024-03-08T01:48:16;41.20;;;21.75;;
25752;SDS011;13600;50.816;4.416;2024-03-08T01:50:42;41.55;;;22.15;;
25752;SDS011;13600;50.816;4.416;2024-03-08T01:53:09;43.83;;;22.10;;
25752;SDS011;13600;50.816;4.416;2024-03-08T01:55:37;40.13;;;21.20;;
25752;SDS011;13600;50.816;4.416;2024-03-08T01:58:04;41.85;;;22.20;;
25752;SDS011;13600;50.816;4.416;2024-03-08T02:00:31;42.75;;;22.05;;
25752;SDS011;13600;50.816;4.416;2024-03-08T02:02:58;45.17;;;23.35;;
25752;SDS011;13600;50.816;4.416;2024-03-08T02:05:24;42.22;;;22.27;;
25752;SDS011;13600;50.816;4.416;2024-03-08T02:07:50;42.38;;;22.52;;
25752;SDS011;13600;50.816;4.416;2024-03-08T02:10:16;46.17;;;23.58;;
25752;SDS011;13600;50.816;4.416;2024-03-08T02:12:42;41.58;;;22.90;;
25752;SDS011;13600;50.816;4.416;2024-03-08T02:15:08;44.22;;;24.02;;
25752;SDS011;13600;50.816;4.416;2024-03-08T02:17:35;46.92;;;23.40;;
25752;SDS011;13600;50.816;4.416;2024-03-08T02:20:01;45.17;;;23.65;;
25752;SDS011;13600;50.816;4.416;2024-03-08T02:22:29;44.25;;;23.08;;
25752;SDS011;13600;50.816;4.416;2024-03-08T02:24:55;41.58;;;23.70;;
25752;SDS011;13600;50.816;4.416;2024-03-08T02:27:25;43.25;;;23.83;;
25752;SDS011;13600;50.816;4.416;2024-03-08T02:29:53;46.28;;;23.75;;
25752;SDS011;13600;50.816;4.416;2024-03-08T02:32:23;47.50;;;23.80;;
25752;SDS011;13600;50.816;4.416;2024-03-08T02:34:49;46.90;;;24.50;;
25752;SDS011;13600;50.816;4.416;2024-03-08T02:37:16;45.97;;;24.83;;
25752;SDS011;13600;50.816;4.416;2024-03-08T02:39:42;42.03;;;23.42;;
25752;SDS011;13600;50.816;4.416;2024-03-08T02:42:08;47.92;;;25.27;;
25752;SDS011;13600;50.816;4.416;2024-03-08T02:44:35;42.88;;;24.13;;
25752;SDS011;13600;50.816;4.416;2024-03-08T02:47:00;46.75;;;25.08;;
25752;SDS011;13600;50.816;4.416;2024-03-08T02:49:26;41.60;;;25.27;;
25752;SDS011;13600;50.816;4.416;2024-03-08T02:51:52;46.50;;;26.13;;
25752;SDS011;13600;50.816;4.416;2024-03-08T02:54:19;47.95;;;25.88;;
25752;SDS011;13600;50.816;4.416;2024-03-08T02:56:47;46.45;;;26.17;;
25752;SDS011;13600;50.816;4.416;2024-03-08T02:59:16;43.22;;;25.00;;
25752;SDS011;13600;50.816;4.416;2024-03-08T03:01:42;48.75;;;25.77;;
25752;SDS011;13600;50.816;4.416;2024-03-08T03:04:08;44.85;;;25.65;;
25752;SDS011;13600;50.816;4.416;2024-03-08T03:06:34;46.08;;;26.92;;
25752;SDS011;13600;50.816;4.416;2024-03-08T03:09:01;45.65;;;26.10;;
25752;SDS011;13600;50.816;4.416;2024-03-08T03:11:27;42.78;;;25.63;;
25752;SDS011;13600;50.816;4.416;2024-03-08T03:13:53;46.85;;;26.48;;
25752;SDS011;13600;50.816;4.416;2024-03-08T03:16:19;47.00;;;26.70;;
25752;SDS011;13600;50.816;4.416;2024-03-08T03:18:45;46.88;;;27.25;;
25752;SDS011;13600;50.816;4.416;2024-03-08T03:21:12;43.72;;;25.92;;
25752;SDS011;13600;50.816;4.416;2024-03-08T03:23:41;47.08;;;26.45;;
25752;SDS011;13600;50.816;4.416;2024-03-08T03:26:09;45.33;;;27.33;;
25752;SDS011;13600;50.816;4.416;2024-03-08T03:28:37;46.97;;;26.48;;
25752;SDS011;13600;50.816;4.416;2024-03-08T03:31:07;47.15;;;27.25;;
25752;SDS011;13600;50.816;4.416;2024-03-08T03:33:35;46.90;;;26.40;;
25752;SDS011;13600;50.816;4.416;2024-03-08T03:36:01;49.30;;;27.33;;
25752;SDS011;13600;50.816;4.416;2024-03-08T03:38:28;48.72;;;28.63;;
25752;SDS011;13600;50.816;4.416;2024-03-08T03:40:53;48.72;;;27.50;;
25752;SDS011;13600;50.816;4.416;2024-03-08T03:43:22;48.53;;;27.85;;
25752;SDS011;13600;50.816;4.416;2024-03-08T03:45:49;48.53;;;28.23;;
25752;SDS011;13600;50.816;4.416;2024-03-08T03:48:15;47.97;;;27.20;;
25752;SDS011;13600;50.816;4.416;2024-03-08T03:50:41;51.30;;;27.25;;
25752;SDS011;13600;50.816;4.416;2024-03-08T03:53:07;49.00;;;27.77;;
25752;SDS011;13600;50.816;4.416;2024-03-08T03:55:34;47.88;;;27.88;;
25752;SDS011;13600;50.816;4.416;2024-03-08T03:58:00;49.78;;;27.65;;
25752;SDS011;13600;50.816;4.416;2024-03-08T04:00:26;48.17;;;28.10;;
25752;SDS011;13600;50.816;4.416;2024-03-08T04:02:52;46.80;;;28.23;;
25752;SDS011;13600;50.816;4.416;2024-03-08T04:05:18;48.63;;;29.10;;
25752;SDS011;13600;50.816;4.416;2024-03-08T04:07:44;46.38;;;27.40;;
25752;SDS011;13600;50.816;4.416;2024-03-08T04:10:10;49.28;;;27.48;;
25752;SDS011;13600;50.816;4.416;2024-03-08T04:12:36;48.15;;;27.75;;
25752;SDS011;13600;50.816;4.416;2024-03-08T04:15:02;52.50;;;28.48;;
25752;SDS011;13600;50.816;4.416;2024-03-08T04:17:31;48.13;;;28.20;;
25752;SDS011;13600;50.816;4.416;2024-03-08T04:19:56;50.85;;;27.73;;
25752;SDS011;13600;50.816;4.416;2024-03-08T04:22:22;48.28;;;28.33;;
25752;SDS011;13600;50.816;4.416;2024-03-08T04:24:48;51.30;;;30.13;;
25752;SDS011;13600;50.816;4.416;2024-03-08T04:27:13;49.13;;;27.58;;
25752;SDS011;13600;50.816;4.416;2024-03-08T04:29:39;50.53;;;28.33;;
25752;SDS011;13600;50.816;4.416;2024-03-08T04:32:06;50.13;;;29.40;;
25752;SDS011;13600;50.816;4.416;2024-03-08T04:34:33;50.30;;;27.67;;
25752;SDS011;13600;50.816;4.416;2024-03-08T04:37:02;51.70;;;29.55;;
25752;SDS011;13600;50.816;4.416;2024-03-08T04:39:29;54.05;;;29.45;;
25752;SDS011;13600;50.816;4.416;2024-03-08T04:42:00;50.05;;;29.67;;
25752;SDS011;13600;50.816;4.416;2024-03-08T04:44:36;50.38;;;29.35;;
25752;SDS011;13600;50.816;4.416;2024-03-08T04:47:05;52.78;;;29.15;;
25752;SDS011;13600;50.816;4.416;2024-03-08T04:49:34;51.05;;;28.25;;
25752;SDS011;13600;50.816;4.416;2024-03-08T04:52:01;52.38;;;29.35;;
25752;SDS011;13600;50.816;4.416;2024-03-08T04:54:28;50.58;;;29.02;;
25752;SDS011;13600;50.816;4.416;2024-03-08T04:56:54;47.45;;;28.23;;
25752;SDS011;13600;50.816;4.416;2024-03-08T04:59:19;48.00;;;27.92;;
25752;SDS011;13600;50.816;4.416;2024-03-08T05:01:45;52.28;;;28.70;;
25752;SDS011;13600;50.816;4.416;2024-03-08T05:04:12;50.35;;;28.85;;
25752;SDS011;13600;50.816;4.416;2024-03-08T05:06:40;47.30;;;28.13;;
25752;SDS011;13600;50.816;4.416;2024-03-08T05:09:06;48.28;;;28.15;;
25752;SDS011;13600;50.816;4.416;2024-03-08T05:11:42;51.92;;;28.45;;
25752;SDS011;13600;50.816;4.416;2024-03-08T05:14:09;47.83;;;28.42;;
25752;SDS011;13600;50.816;4.416;2024-03-08T05:16:35;52.13;;;29.00;;
25752;SDS011;13600;50.816;4.416;2024-03-08T05:19:01;51.15;;;28.20;;
25752;SDS011;13600;50.816;4.416;2024-03-08T05:21:27;49.33;;;27.77;;
25752;SDS011;13600;50.816;4.416;2024-03-08T05:23:54;48.55;;;27.83;;
25752;SDS011;13600;50.816;4.416;2024-03-08T05:26:20;52.35;;;29.05;;
25752;SDS011;13600;50.816;4.416;2024-03-08T05:28:47;53.55;;;29.83;;
25752;SDS011;13600;50.816;4.416;2024-03-08T05:31:22;51.35;;;28.90;;
25752;SDS011;13600;50.816;4.416;2024-03-08T05:33:48;51.25;;;29.13;;
25752;SDS011;13600;50.816;4.416;2024-03-08T05:36:14;51.42;;;29.27;;
25752;SDS011;13600;50.816;4.416;2024-03-08T05:38:42;53.05;;;29.10;;
25752;SDS011;13600;50.816;4.416;2024-03-08T05:41:09;47.90;;;28.27;;
25752;SDS011;13600;50.816;4.416;2024-03-08T05:43:35;52.58;;;28.13;;
25752;SDS011;13600;50.816;4.416;2024-03-08T05:46:01;52.03;;;29.30;;
25752;SDS011;13600;50.816;4.416;2024-03-08T05:48:29;51.20;;;29.52;;
25752;SDS011;13600;50.816;4.416;2024-03-08T05:50:57;49.95;;;29.30;;
25752;SDS011;13600;50.816;4.416;2024-03-08T05:53:23;53.75;;;29.92;;
25752;SDS011;13600;50.816;4.416;2024-03-08T05:55:48;57.58;;;29.00;;
25752;SDS011;13600;50.816;4.416;2024-03-08T05:58:14;52.72;;;29.70;;
25752;SDS011;13600;50.816;4.416;2024-03-08T06:00:41;50.28;;;27.70;;
25752;SDS011;13600;50.816;4.416;2024-03-08T06:03:07;49.55;;;28.42;;
25752;SDS011;13600;50.816;4.416;2024-03-08T06:05:33;54.22;;;29.90;;
25752;SDS011;13600;50.816;4.416;2024-03-08T06:07:58;53.92;;;28.75;;
25752;SDS011;13600;50.816;4.416;2024-03-08T06:10:24;49.03;;;27.77;;
25752;SDS011;13600;50.816;4.416;2024-03-08T06:12:50;55.30;;;29.30;;
25752;SDS011;13600;50.816;4.416;2024-03-08T06:15:16;54.65;;;29.35;;
25752;SDS011;13600;50.816;4.416;2024-03-08T06:17:42;51.97;;;28.88;;
25752;SDS011;13600;50.816;4.416;2024-03-08T06:20:08;49.60;;;28.52;;
25752;SDS011;13600;50.816;4.416;2024-03-08T06:22:38;57.17;;;29.52;;
25752;SDS011;13600;50.816;4.416;2024-03-08T06:25:07;50.13;;;28.25;;
25752;SDS011;13600;50.816;4.416;2024-03-08T06:27:34;54.00;;;28.70;;
25752;SDS011;13600;50.816;4.416;2024-03-08T06:30:00;54.67;;;28.33;;
25752;SDS011;13600;50.816;4.416;2024-03-08T06:32:27;52.88;;;28.83;;
25752;SDS011;13600;50.816;4.416;2024-03-08T06:34:52;53.83;;;28.88;;
25752;SDS011;13600;50.816;4.416;2024-03-08T06:37:18;52.83;;;28.02;;
25752;SDS011;13600;50.816;4.416;2024-03-08T06:39:49;50.80;;;28.33;;
25752;SDS011;13600;50.816;4.416;2024-03-08T06:42:16;53.47;;;29.10;;
25752;SDS011;13600;50.816;4.416;2024-03-08T06:44:42;54.88;;;29.58;;
25752;SDS011;13600;50.816;4.416;2024-03-08T06:47:15;54.47;;;28.08;;
25752;SDS011;13600;50.816;4.416;2024-03-08T06:49:44;55.45;;;29.80;;
25752;SDS011;13600;50.816;4.416;2024-03-08T06:52:10;50.45;;;28.05;;
25752;SDS011;13600;50.816;4.416;2024-03-08T06:54:36;47.90;;;27.50;;
25752;SDS011;13600;50.816;4.416;2024-03-08T06:57:03;54.58;;;29.10;;
25752;SDS011;13600;50.816;4.416;2024-03-08T06:59:30;51.75;;;27.83;;
25752;SDS011;13600;50.816;4.416;2024-03-08T07:01:56;52.88;;;28.13;;
25752;SDS011;13600;50.816;4.416;2024-03-08T07:04:24;50.45;;;27.27;;
25752;SDS011;13600;50.816;4.416;2024-03-08T07:06:54;51.28;;;27.20;;
25752;SDS011;13600;50.816;4.416;2024-03-08T07:09:23;48.05;;;27.52;;
25752;SDS011;13600;50.816;4.416;2024-03-08T07:11:50;49.33;;;27.40;;
25752;SDS011;13600;50.816;4.416;2024-03-08T07:14:22;49.58;;;26.92;;
25752;SDS011;13600;50.816;4.416;2024-03-08T07:16:50;49.63;;;27.15;;
25752;SDS011;13600;50.816;4.416;2024-03-08T07:19:16;47.15;;;27.02;;
25752;SDS011;13600;50.816;4.416;2024-03-08T07:21:45;50.97;;;26.17;;
25752;SDS011;13600;50.816;4.416;2024-03-08T07:24:12;48.95;;;26.98;;
25752;SDS011;13600;50.816;4.416;2024-03-08T07:26:57;48.67;;;26.60;;
25752;SDS011;13600;50.816;4.416;2024-03-08T07:29:23;48.92;;;26.38;;
25752;SDS011;13600;50.816;4.416;2024-03-08T07:31:48;49.63;;;26.10;;
25752;SDS011;13600;50.816;4.416;2024-03-08T07:34:23;47.35;;;26.33;;
25752;SDS011;13600;50.816;4.416;2024-03-08T07:36:49;46.95;;;25.42;;
25752;SDS011;13600;50.816;4.416;2024-03-08T07:39:16;45.50;;;25.27;;
25752;SDS011;13600;50.816;4.416;2024-03-08T07:41:44;46.55;;;26.40;;
25752;SDS011;13600;50.816;4.416;2024-03-08T07:44:10;48.35;;;26.38;;
25752;SDS011;13600;50.816;4.416;2024-03-08T07:46:35;49.47;;;26.15;;
25752;SDS011;13600;50.816;4.416;2024-03-08T07:49:02;46.58;;;25.50;;
25752;SDS011;13600;50.816;4.416;2024-03-08T07:51:29;49.72;;;24.85;;
25752;SDS011;13600;50.816;4.416;2024-03-08T07:53:55;47.83;;;25.67;;
25752;SDS011;13600;50.816;4.416;2024-03-08T07:56:22;53.42;;;25.30;;
25752;SDS011;13600;50.816;4.416;2024-03-08T07:58:47;46.42;;;26.30;;
25752;SDS011;13600;50.816;4.416;2024-03-08T08:01:17;47.28;;;25.35;;
25752;SDS011;13600;50.816;4.416;2024-03-08T08:03:43;43.63;;;25.40;;
25752;SDS011;13600;50.816;4.416;2024-03-08T08:06:10;45.45;;;24.83;;
25752;SDS011;13600;50.816;4.416;2024-03-08T08:08:43;44.85;;;25.15;;
25752;SDS011;13600;50.816;4.416;2024-03-08T08:11:09;43.75;;;24.35;;
25752;SDS011;13600;50.816;4.416;2024-03-08T08:13:40;41.90;;;23.02;;
25752;SDS011;13600;50.816;4.416;2024-03-08T08:18:54;46.17;;;24.38;;
25752;SDS011;13600;50.816;4.416;2024-03-08T08:23:57;51.75;;;25.95;;
25752;SDS011;13600;50.816;4.416;2024-03-08T08:26:23;41.92;;;23.60;;
25752;SDS011;13600;50.816;4.416;2024-03-08T08:28:51;50.95;;;24.40;;
25752;SDS011;13600;50.816;4.416;2024-03-08T08:31:18;40.67;;;23.55;;
25752;SDS011;13600;50.816;4.416;2024-03-08T08:33:44;42.17;;;23.67;;
25752;SDS011;13600;50.816;4.416;2024-03-08T08:36:10;43.60;;;23.88;;
25752;SDS011;13600;50.816;4.416;2024-03-08T08:38:36;37.95;;;22.23;;
25752;SDS011;13600;50.816;4.416;2024-03-08T08:41:01;43.28;;;23.10;;
25752;SDS011;13600;50.816;4.416;2024-03-08T08:43:27;37.30;;;22.88;;
25752;SDS011;13600;50.816;4.416;2024-03-08T08:45:54;41.33;;;22.73;;
25752;SDS011;13600;50.816;4.416;2024-03-08T08:48:28;39.47;;;22.60;;
25752;SDS011;13600;50.816;4.416;2024-03-08T08:50:57;38.40;;;22.10;;
25752;SDS011;13600;50.816;4.416;2024-03-08T08:53:30;40.50;;;22.17;;
25752;SDS011;13600;50.816;4.416;2024-03-08T08:55:55;37.67;;;21.52;;
25752;SDS011;13600;50.816;4.416;2024-03-08T08:58:22;43.95;;;22.88;;
25752;SDS011;13600;50.816;4.416;2024-03-08T09:00:49;39.38;;;21.52;;
25752;SDS011;13600;50.816;4.416;2024-03-08T09:03:15;43.90;;;22.70;;
25752;SDS011;13600;50.816;4.416;2024-03-08T09:05:42;39.00;;;22.10;;
25752;SDS011;13600;50.816;4.416;2024-03-08T09:08:07;39.28;;;22.27;;
25752;SDS011;13600;50.816;4.416;2024-03-08T09:10:35;36.30;;;20.08;;
25752;SDS011;13600;50.816;4.416;2024-03-08T09:13:02;34.42;;;21.40;;
25752;SDS011;13600;50.816;4.416;2024-03-08T09:15:29;36.60;;;21.38;;
25752;SDS011;13600;50.816;4.416;2024-03-08T09:17:55;35.17;;;21.83;;
25752;SDS011;13600;50.816;4.416;2024-03-08T09:20:20;34.13;;;20.60;;
25752;SDS011;13600;50.816;4.416;2024-03-08T09:22:46;29.60;;;19.38;;
25752;SDS011;13600;50.816;4.416;2024-03-08T09:25:12;32.47;;;21.05;;
25752;SDS011;13600;50.816;4.416;2024-03-08T09:27:38;32.20;;;19.60;;
25752;SDS011;13600;50.816;4.416;2024-03-08T09:30:04;31.77;;;19.80;;
25752;SDS011;13600;50.816;4.416;2024-03-08T09:32:33;29.17;;;19.63;;
25752;SDS011;13600;50.816;4.416;2024-03-08T09:34:58;27.00;;;18.38;;
25752;SDS011;13600;50.816;4.416;2024-03-08T09:37:26;31.63;;;21.13;;
25752;SDS011;13600;50.816;4.416;2024-03-08T09:39:52;33.38;;;23.30;;
25752;SDS011;13600;50.816;4.416;2024-03-08T09:42:17;29.20;;;20.08;;
25752;SDS011;13600;50.816;4.416;2024-03-08T09:44:45;27.65;;;19.02;;
25752;SDS011;13600;50.816;4.416;2024-03-08T09:47:12;27.55;;;18.27;;
25752;SDS011;13600;50.816;4.416;2024-03-08T09:49:39;24.90;;;18.25;;
25752;SDS011;13600;50.816;4.416;2024-03-08T09:52:06;26.23;;;18.42;;
25752;SDS011;13600;50.816;4.416;2024-03-08T09:54:37;26.17;;;19.52;;
25752;SDS011;13600;50.816;4.416;2024-03-08T09:57:06;28.30;;;18.75;;
25752;SDS011;13600;50.816;4.416;2024-03-08T09:59:34;30.27;;;18.90;;
25752;SDS011;13600;50.816;4.416;2024-03-08T10:02:02;26.70;;;18.25;;
25752;SDS011;13600;50.816;4.416;2024-03-08T10:04:29;27.65;;;19.52;;
25752;SDS011;13600;50.816;4.416;2024-03-08T10:06:58;23.70;;;17.80;;
25752;SDS011;13600;50.816;4.416;2024-03-08T10:09:24;24.00;;;18.70;;
25752;SDS011;13600;50.816;4.416;2024-03-08T10:11:58;26.52;;;18.15;;
25752;SDS011;13600;50.816;4.416;2024-03-08T10:14:25;25.27;;;18.50;;
25752;SDS011;13600;50.816;4.416;2024-03-08T10:16:54;37.83;;;30.10;;
25752;SDS011;13600;50.816;4.416;2024-03-08T10:19:20;26.50;;;18.45;;
25752;SDS011;13600;50.816;4.416;2024-03-08T10:21:50;27.10;;;18.58;;
25752;SDS011;13600;50.816;4.416;2024-03-08T10:24:18;22.67;;;17.65;;
25752;SDS011;13600;50.816;4.416;2024-03-08T10:26:44;24.35;;;17.33;;
25752;SDS011;13600;50.816;4.416;2024-03-08T10:29:11;28.88;;;18.88;;
25752;SDS011;13600;50.816;4.416;2024-03-08T10:31:42;27.13;;;18.65;;
25752;SDS011;13600;50.816;4.416;2024-03-08T10:34:11;30.17;;;18.13;;
25752;SDS011;13600;50.816;4.416;2024-03-08T10:36:37;28.08;;;17.85;;
25752;SDS011;13600;50.816;4.416;2024-03-08T10:39:27;26.42;;;17.83;;
25752;SDS011;13600;50.816;4.416;2024-03-08T10:41:55;25.20;;;18.35;;
25752;SDS011;13600;50.816;4.416;2024-03-08T10:47:03;25.48;;;17.50;;
25752;SDS011;13600;50.816;4.416;2024-03-08T10:49:51;24.35;;;17.60;;
25752;SDS011;13600;50.816;4.416;2024-03-08T10:52:18;24.33;;;17.70;;
25752;SDS011;13600;50.816;4.416;2024-03-08T10:54:44;24.35;;;17.70;;
25752;SDS011;13600;50.816;4.416;2024-03-08T10:57:12;22.40;;;17.58;;
25752;SDS011;13600;50.816;4.416;2024-03-08T10:59:40;21.40;;;16.98;;
25752;SDS011;13600;50.816;4.416;2024-03-08T11:02:09;22.23;;;17.02;;
25752;SDS011;13600;50.816;4.416;2024-03-08T11:04:37;20.63;;;16.25;;
25752;SDS011;13600;50.816;4.416;2024-03-08T11:07:03;26.02;;;16.58;;
25752;SDS011;13600;50.816;4.416;2024-03-08T11:09:37;24.00;;;16.33;;
25752;SDS011;13600;50.816;4.416;2024-03-08T11:15:00;23.15;;;16.48;;
25752;SDS011;13600;50.816;4.416;2024-03-08T11:19:59;21.52;;;16.70;;
25752;SDS011;13600;50.816;4.416;2024-03-08T11:22:31;23.73;;;17.30;;
25752;SDS011;13600;50.816;4.416;2024-03-08T11:25:05;24.15;;;16.92;;
25752;SDS011;13600;50.816;4.416;2024-03-08T11:27:37;23.10;;;17.38;;
25752;SDS011;13600;50.816;4.416;2024-03-08T11:30:05;21.58;;;16.80;;
25752;SDS011;13600;50.816;4.416;2024-03-08T11:32:36;25.55;;;17.63;;
25752;SDS011;13600;50.816;4.416;2024-03-08T11:35:17;20.65;;;16.13;;
25752;SDS011;13600;50.816;4.416;2024-03-08T11:37:45;19.80;;;16.48;;
25752;SDS011;13600;50.816;4.416;2024-03-08T11:40:13;22.48;;;16.40;;
25752;SDS011;13600;50.816;4.416;2024-03-08T11:42:45;21.00;;;16.27;;
25752;SDS011;13600;50.816;4.416;2024-03-08T11:45:12;21.15;;;16.25;;
25752;SDS011;13600;50.816;4.416;2024-03-08T11:47:45;22.65;;;15.38;;
25752;SDS011;13600;50.816;4.416;2024-03-08T11:50:12;19.27;;;15.50;;
25752;SDS011;13600;50.816;4.416;2024-03-08T11:52:38;21.08;;;16.40;;
25752;SDS011;13600;50.816;4.416;2024-03-08T11:55:04;24.35;;;16.85;;
25752;SDS011;13600;50.816;4.416;2024-03-08T11:57:31;18.75;;;15.60;;
25752;SDS011;13600;50.816;4.416;2024-03-08T11:59:58;19.80;;;16.00;;
25752;SDS011;13600;50.816;4.416;2024-03-08T12:02:35;21.38;;;16.08;;
25752;SDS011;13600;50.816;4.416;2024-03-08T12:05:04;21.90;;;15.38;;
25752;SDS011;13600;50.816;4.416;2024-03-08T12:07:35;23.17;;;16.13;;
25752;SDS011;13600;50.816;4.416;2024-03-08T12:12:49;19.00;;;15.98;;
25752;SDS011;13600;50.816;4.416;2024-03-08T12:15:23;19.13;;;14.98;;
25752;SDS011;13600;50.816;4.416;2024-03-08T12:23:44;22.08;;;15.57;;
25752;SDS011;13600;50.816;4.416;2024-03-08T12:26:14;17.75;;;14.30;;
25752;SDS011;13600;50.816;4.416;2024-03-08T12:28:50;17.73;;;14.38;;
25752;SDS011;13600;50.816;4.416;2024-03-08T12:31:16;19.80;;;14.80;;
25752;SDS011;13600;50.816;4.416;2024-03-08T12:33:53;18.05;;;14.70;;
25752;SDS011;13600;50.816;4.416;2024-03-08T12:36:22;20.60;;;16.23;;
25752;SDS011;13600;50.816;4.416;2024-03-08T12:38:48;19.60;;;14.93;;
25752;SDS011;13600;50.816;4.416;2024-03-08T12:41:14;20.70;;;15.23;;
25752;SDS011;13600;50.816;4.416;2024-03-08T12:43:40;18.00;;;14.52;;
25752;SDS011;13600;50.816;4.416;2024-03-08T12:46:07;20.83;;;15.13;;
25752;SDS011;13600;50.816;4.416;2024-03-08T12:48:34;19.92;;;16.10;;
25752;SDS011;13600;50.816;4.416;2024-03-08T12:51:00;25.08;;;16.35;;
25752;SDS011;13600;50.816;4.416;2024-03-08T12:53:26;21.50;;;15.25;;
25752;SDS011;13600;50.816;4.416;2024-03-08T12:55:54;20.67;;;15.45;;
25752;SDS011;13600;50.816;4.416;2024-03-08T12:58:21;23.92;;;15.23;;
25752;SDS011;13600;50.816;4.416;2024-03-08T13:00:47;20.05;;;15.32;;
25752;SDS011;13600;50.816;4.416;2024-03-08T13:03:14;20.10;;;14.95;;
25752;SDS011;13600;50.816;4.416;2024-03-08T13:05:40;19.60;;;14.10;;
25752;SDS011;13600;50.816;4.416;2024-03-08T13:08:07;23.58;;;15.20;;
25752;SDS011;13600;50.816;4.416;2024-03-08T13:10:40;19.17;;;14.65;;
25752;SDS011;13600;50.816;4.416;2024-03-08T13:13:09;17.92;;;14.15;;
25752;SDS011;13600;50.816;4.416;2024-03-08T13:15:36;16.98;;;14.20;;
25752;SDS011;13600;50.816;4.416;2024-03-08T13:18:02;22.50;;;14.93;;
25752;SDS011;13600;50.816;4.416;2024-03-08T13:20:28;20.05;;;14.70;;
25752;SDS011;13600;50.816;4.416;2024-03-08T13:22:57;19.88;;;14.15;;
25752;SDS011;13600;50.816;4.416;2024-03-08T13:25:25;21.27;;;14.57;;
25752;SDS011;13600;50.816;4.416;2024-03-08T13:27:51;18.75;;;14.48;;
25752;SDS011;13600;50.816;4.416;2024-03-08T13:30:19;20.73;;;15.13;;
25752;SDS011;13600;50.816;4.416;2024-03-08T13:32:49;20.17;;;14.90;;
25752;SDS011;13600;50.816;4.416;2024-03-08T13:35:16;18.88;;;14.88;;
25752;SDS011;13600;50.816;4.416;2024-03-08T13:37:51;19.38;;;14.63;;
25752;SDS011;13600;50.816;4.416;2024-03-08T13:40:17;16.20;;;13.52;;
25752;SDS011;13600;50.816;4.416;2024-03-08T13:42:47;18.70;;;13.60;;
25752;SDS011;13600;50.816;4.416;2024-03-08T13:45:16;17.85;;;14.18;;
25752;SDS011;13600;50.816;4.416;2024-03-08T13:47:51;16.23;;;13.63;;
25752;SDS011;13600;50.816;4.416;2024-03-08T13:50:19;20.08;;;13.80;;
25752;SDS011;13600;50.816;4.416;2024-03-08T13:52:48;19.02;;;14.27;;
25752;SDS011;13600;50.816;4.416;2024-03-08T13:55:19;20.63;;;13.82;;
25752;SDS011;13600;50.816;4.416;2024-03-08T13:57:47;20.20;;;14.45;;
25752;SDS011;13600;50.816;4.416;2024-03-08T14:00:13;17.13;;;14.00;;
25752;SDS011;13600;50.816;4.416;2024-03-08T14:02:40;17.27;;;13.23;;
25752;SDS011;13600;50.816;4.416;2024-03-08T14:05:06;19.23;;;13.70;;
25752;SDS011;13600;50.816;4.416;2024-03-08T14:07:34;18.90;;;13.43;;
25752;SDS011;13600;50.816;4.416;2024-03-08T14:10:03;17.92;;;13.68;;
25752;SDS011;13600;50.816;4.416;2024-03-08T14:12:32;18.88;;;13.93;;
25752;SDS011;13600;50.816;4.416;2024-03-08T14:14:58;19.42;;;14.23;;
25752;SDS011;13600;50.816;4.416;2024-03-08T14:17:26;20.13;;;13.40;;
25752;SDS011;13600;50.816;4.416;2024-03-08T14:19:53;20.48;;;14.05;;
25752;SDS011;13600;50.816;4.416;2024-03-08T14:22:19;18.33;;;12.55;;
25752;SDS011;13600;50.816;4.416;2024-03-08T14:24:45;18.58;;;13.65;;
25752;SDS011;13600;50.816;4.416;2024-03-08T14:27:11;16.73;;;13.88;;
25752;SDS011;13600;50.816;4.416;2024-03-08T14:29:37;18.13;;;14.02;;
25752;SDS011;13600;50.816;4.416;2024-03-08T14:32:04;19.63;;;12.80;;
25752;SDS011;13600;50.816;4.416;2024-03-08T14:34:31;19.60;;;12.30;;
25752;SDS011;13600;50.816;4.416;2024-03-08T14:36:59;16.88;;;11.90;;
25752;SDS011;13600;50.816;4.416;2024-03-08T14:39:25;18.92;;;13.00;;
25752;SDS011;13600;50.816;4.416;2024-03-08T14:41:54;18.55;;;12.90;;
25752;SDS011;13600;50.816;4.416;2024-03-08T14:44:23;20.42;;;11.85;;
25752;SDS011;13600;50.816;4.416;2024-03-08T14:46:54;16.65;;;11.18;;